Rosenberg's Hourly Summary for Tuesday, April 18, 2017
Hour Temp
(f)
RH
(%)
Solar Rad.
(MJ/m2)
Rainfall
(in)
Wind
(mph)
4/18/2017 12:00 AM 60 93 0 0 2.66
4/18/2017 1:00 AM 60 92 0 0 2.78
4/18/2017 2:00 AM 60 91 0 0 6.34
4/18/2017 3:00 AM 60 92 0 0 3.05
4/18/2017 4:00 AM 60 92 0 0.05 3.49
4/18/2017 5:00 AM 60 92 0 0.64 4.2
4/18/2017 6:00 AM 59 94 0.01 0.13 4.55
4/18/2017 7:00 AM 59 95 0.06 0.09 7.8
4/18/2017 8:00 AM 59 94 0.3 0.02 6.24
4/18/2017 9:00 AM 60 91 0.78 0 6.43
4/18/2017 10:00 AM 61 89 0.52 0.01 5.5
4/18/2017 11:00 AM 61 90 0.8 0.02 2.16
4/18/2017 12:00 PM 64 88 1.19 0 3.6
4/18/2017 1:00 PM 66 83 1.4 0 6.33
4/18/2017 2:00 PM 68 77 1.7 0 7.21
4/18/2017 3:00 PM 69 72 1.66 0 7.5
4/18/2017 4:00 PM 70 71 1.28 0 8.67
4/18/2017 5:00 PM 69 75 0.38 0 6.48
4/18/2017 6:00 PM 68 79 0.19 0 5.93
4/18/2017 7:00 PM 67 83 0 0 5.16
4/18/2017 8:00 PM 65 87 0 0 3.98
4/18/2017 9:00 PM 64 90 0 0 3.87
4/18/2017 10:00 PM 63 92 0 0 0.57
4/18/2017 11:00 PM 61 93 0 0 0.63
Data Summary 63 87 10.27 0.96 4.80